Happy Valentine's Day! 

Flight Track Log - Related Links

Times and Time Zones

All times are in EDT time to prevent confusion due to time zone crossing. See the TCF3494 flight status page for this flight to view local times or setup timezone preferences in your user account.


Time Position Orientation Groundspeed Altitude Reporting Facility
EDT Latitude Longitude Course Direction KTS MPH feet Rate Location/Type
Thu 08:09:00 PM 42.0000 -87.8667 85° East 165 190 2,100  Level Chicago TRACON
Thu 08:10:12 PM 42.0061 -87.7858 84° East 200 230 4,200 1,299 Climbing Chicago Center
Thu 08:11:00 PM 41.9423 -87.2576 95° East  Level FlightAware Approximate
Thu 08:11:14 PM 41.9994 -87.6822 95° East 266 306 5,000  Level Chicago Center
Thu 08:12:00 PM 41.9333 -87.0972 90° East  Level FlightAware Approximate
Thu 08:12:16 PM 41.9906 -87.5756 96° East 285 328 8,200  Level Chicago Center
Thu 08:13:00 PM 41.9333 -86.9361 90° East  Level FlightAware Approximate
Thu 08:13:18 PM 41.9806 -87.4658 97° East 293 337 11,200  Level Chicago Center
Thu 08:14:00 PM 41.9339 -86.7751 85° East  Level FlightAware Approximate
Thu 08:14:21 PM 41.9683 -87.3233 97° East 321 369 14,300  Level Chicago Center
Thu 08:15:23 PM 41.9578 -87.2033 97° East 325 374 16,800 1,645 Climbing Chicago Center
Thu 08:16:25 PM 41.9461 -87.0692 97° East 365 420 17,700 1,306 Climbing Chicago Center
Thu 08:17:27 PM 41.9492 -86.9203 88° East 395 455 19,500 1,790 Climbing Chicago Center
Thu 08:18:29 PM 41.9508 -86.7642 89° East 413 475 21,400 1,694 Climbing Chicago Center
Thu 08:19:31 PM 41.9511 -86.5989 90° East 440 506 23,000 1,694 Climbing Chicago Center
Thu 08:20:33 PM 41.9533 -86.3983 89° East 448 516 24,900 1,597 Climbing Chicago Center
Thu 08:21:35 PM 41.9550 -86.2267 89° East 455 524 26,300 1,258 Climbing Chicago Center
Thu 08:22:37 PM 41.9408 -86.0544 96° East 464 534 27,500 1,065 Climbing Chicago Center
Thu 08:23:39 PM 41.9242 -85.8800 97° East 471 542 28,500 871 Climbing Chicago Center
Thu 08:24:41 PM 41.9075 -85.6992 97° East 483 556 29,300 768 Climbing Chicago Center
Thu 08:25:44 PM 41.8897 -85.5125 97° East 497 572 30,100 768 Climbing Chicago Center
Thu 08:26:46 PM 41.8708 -85.3206 97° East 509 586 30,900 823 Climbing Chicago Center
Thu 08:27:48 PM 41.8517 -85.1275 98° East 516 594 31,800 823 Climbing Chicago Center
Thu 08:28:50 PM 41.8275 -84.8925 98° East 528 608 32,600 726 Climbing Chicago Center
Thu 08:29:52 PM 41.8064 -84.6939 98° East 535 616 33,300 725 Climbing Chicago Center
Thu 08:30:21 PM 41.7994 -84.6139 97° East 529 609 33,700 1,011 Climbing Cleveland Center
Thu 08:31:21 PM 41.7833 -84.4125 96° East 529 609 34,800 650 Climbing Cleveland Center
Thu 08:32:21 PM 41.7739 -84.1919 93° East 529 609 35,000 100 Climbing Cleveland Center
Thu 08:33:21 PM 41.7739 -83.9886 90° East 541 623 35,000  Level Cleveland Center
Thu 08:34:21 PM 41.7697 -83.7739 91° East 556 640 35,000  Level Cleveland Center
Thu 08:35:21 PM 41.7669 -83.5650 91° East 561 646 35,000  Level Cleveland Center
Thu 08:36:21 PM 41.7492 -83.3553 96° East 566 651 35,000  Level Cleveland Center
Thu 08:37:21 PM 41.7308 -83.1653 97° East 572 658 35,000  Level Cleveland Center
Thu 08:38:21 PM 41.7103 -82.9558 97° East 572 658 35,000  Level Cleveland Center
Thu 08:39:21 PM 41.6894 -82.7492 98° East 572 658 35,000  Level Cleveland Center
Thu 08:40:21 PM 41.6681 -82.5428 98° East 562 647 35,000  Level Cleveland Center
Thu 08:41:21 PM 41.6444 -82.3169 98° East 562 647 35,000  Level Cleveland Center
Thu 08:42:21 PM 41.6225 -82.1108 98° East 562 647 35,000  Level Cleveland Center
Thu 08:43:21 PM 41.6000 -81.9047 98° East 562 647 35,000  Level Cleveland Center
Thu 08:44:21 PM 41.5792 -81.7017 98° East 562 647 35,000  Level Cleveland Center
Thu 08:45:21 PM 41.5561 -81.4961 98° East 562 647 35,000  Level Cleveland Center
Thu 08:46:21 PM 41.5344 -81.3100 99° East 562 647 35,000  Level Cleveland Center
Thu 08:47:21 PM 41.5106 -81.1100 99° East 556 640 35,000  Level Cleveland Center
Thu 08:48:21 PM 41.4947 -80.9047 96° East 561 646 35,000  Level Cleveland Center
Thu 08:49:21 PM 41.4764 -80.6994 97° East 556 640 35,000  Level Cleveland Center
Thu 08:50:21 PM 41.4556 -80.4806 97° East 556 640 35,000  Level Cleveland Center
Thu 08:51:21 PM 41.4406 -80.2950 96° East 556 640 35,000  Level Cleveland Center
Thu 08:52:21 PM 41.4211 -80.0931 97° East 556 640 35,000  Level Cleveland Center
Thu 08:53:21 PM 41.4014 -79.8939 97° East 556 640 35,000  Level Cleveland Center
Thu 08:54:21 PM 41.3792 -79.6919 98° East 556 640 35,000  Level Cleveland Center
Thu 08:55:21 PM 41.3606 -79.4903 97° East 556 640 35,000  Level Cleveland Center
Thu 08:56:21 PM 41.3400 -79.2917 98° East 556 640 35,000  Level Cleveland Center
Thu 08:57:21 PM 41.3186 -79.0958 98° East 546 628 35,000  Level Cleveland Center
Thu 08:58:21 PM 41.2992 -78.8944 97° East 546 628 35,000  Level Cleveland Center
Thu 08:59:21 PM 41.2794 -78.6958 97° East 541 623 35,000  Level Cleveland Center
Thu 09:00:21 PM 41.2553 -78.4978 99° East 541 623 35,000 -388 Level Cleveland Center
Thu 09:01:40 PM 41.2244 -78.2333 99° East 549 632 34,100 -857 Descending New York Center
Thu 09:02:41 PM 41.2011 -78.0378 99° East 544 626 33,000 -541 Descending New York Center
Thu 09:03:42 PM 41.1775 -77.8394 99° East 539 620 33,000  Level New York Center
Thu 09:04:42 PM 41.1536 -77.6439 99° East 539 620 33,000  Level New York Center
Thu 09:05:40 PM 41.1278 -77.4403 99° East 544 626 33,000  Level New York Center
Thu 09:06:41 PM 41.0986 -77.2528 102° East 537 618 33,000 -1,289 Level New York Center
Thu 09:07:41 PM 41.0758 -77.0578 99° East 532 612 30,400 -2,650 Descending New York Center
Thu 09:08:41 PM 41.0503 -76.8683 100° East 532 612 27,700 -2,678 Descending New York Center
Thu 09:09:42 PM 41.0219 -76.6869 102° East 517 595 25,000 -2,622 Descending New York Center
Thu 09:10:40 PM 40.9844 -76.5186 106° East 494 568 22,500 -2,471 Descending New York Center
Thu 09:11:41 PM 40.9483 -76.3564 106° East 481 554 20,100 -2,213 Descending New York Center
Thu 09:12:42 PM 40.9064 -76.1825 108° East 448 516 18,000 -1,210 Descending New York Center
Thu 09:13:40 PM 40.8731 -76.0456 108° East 442 509 17,700 -1,261 Descending New York Center
Thu 09:14:41 PM 40.8358 -75.8944 108° East 436 502 15,500 -2,311 Descending New York Center
Thu 09:15:42 PM 40.7989 -75.7381 107° East 415 478 13,000 -1,250 Descending New York Center
Thu 09:16:41 PM 40.7631 -75.5986 109° East 405 466 13,000  Level New York Center
Thu 09:17:42 PM 40.7292 -75.4564 107° East 405 466 13,000  Level New York Center
Thu 09:18:40 PM 40.6928 -75.3172 109° East 405 466 13,000 -151 Level New York Center
Thu 09:19:41 PM 40.6414 -75.1881 118° Southeast 393 452 12,700 -1,131 Descending New York Center
Thu 09:20:42 PM 40.5897 -75.0644 119° Southeast 393 452 10,700 -1,339 Descending New York Center
Thu 09:21:42 PM 40.5522 -74.9500 113° Southeast 381 438 10,000 -356 Descending New York Center
Thu 09:22:40 PM 40.5150 -74.8250 111° Southeast 345 397 10,000  Level New York Center
Thu 09:23:40 PM 40.4847 -74.7303 113° Southeast 320 368 10,000  Level New York Center
Thu 09:24:41 PM 40.4528 -74.6275 112° Southeast 314 361 10,000  Level New York Center
Thu 09:25:40 PM 40.4333 -74.5167 103° East 273 314 10,000 -350 Level New York TRACON
Thu 09:26:41 PM 40.4500 -74.4333 75° East 275 316 9,300 -900 Descending New York TRACON
Thu 09:27:40 PM 40.4833 -74.3333 66° East 269 310 8,200 -690 Descending New York TRACON
Thu 09:28:34 PM 40.5000 -74.2500 75° East 259 298 8,000 -450 Descending New York TRACON
Thu 09:29:40 PM 40.5333 -74.1667 62° Northeast 224 258 7,300 -952 Descending New York TRACON
Thu 09:30:40 PM 40.5667 -74.1000 57° Northeast 228 262 6,000 -1,211 Descending New York TRACON
Thu 09:31:34 PM 40.6167 -74.0833 14° North 217 250 5,000 -1,000 Descending New York TRACON
Thu 09:32:40 PM 40.6833 -74.0667 11° North 206 237 4,000 -500 Descending New York TRACON
Thu 09:33:34 PM 40.7333 -74.0333 27° Northeast 206 237 4,000  Level New York TRACON
Thu 09:34:34 PM 40.7833 -74.0000 27° Northeast 206 237 4,000  Level New York TRACON
Thu 09:35:40 PM 40.8333 -73.9833 14° North 208 239 4,000  Level New York TRACON
Thu 09:36:34 PM 40.8833 -73.9500 27° Northeast 209 241 4,000  Level New York TRACON
Thu 09:37:34 PM 40.9333 -73.9167 27° Northeast 206 237 4,000 -100 Level New York TRACON
Thu 09:38:34 PM 40.9833 -73.8833 27° Northeast 202 232 3,800 -500 Descending New York TRACON
Thu 09:39:34 PM 40.9667 -73.8167 108° East 179 206 3,000 -500 Descending New York TRACON
Thu 09:40:34 PM 40.9333 -73.7833 143° Southeast 174 200 2,800 -500 Descending New York TRACON
Thu 09:41:34 PM 40.8833 -73.7833 180° South 166 191 2,000 -700 Descending New York TRACON
Thu 09:42:34 PM 40.8500 -73.8167 217° Southwest 168 193 1,400 -600 Descending New York TRACON

Login

Don't have an account? Register now (free) for customized features, flight alerts, and more!